Time;durP1;ratioP1;P1;durP2;ratioP2;P2;SDS_P1;SDS_P2;PMS_P1;PMS_P2;Temp;Humidity;BMP_temperature;BMP_pressure;BME280_temperature;BME280_humidity;BME280_pressure;Samples;Min_cycle;Max_cycle;Signal;HPM_P1;HPM_P2
2023/01/07 00:00:44;;;;;;;26.92;13.50;;;;;;;4.81;nan;101367.25;5027012;28;20021;-71
2023/01/07 00:03:10;;;;;;;20.92;12.52;;;;;;;4.82;nan;101366.28;5014855;28;20494;-71
2023/01/07 00:05:35;;;;;;;24.45;12.73;;;;;;;4.77;nan;101353.72;5028286;28;20026;-71
2023/01/07 00:08:01;;;;;;;23.10;12.18;;;;;;;4.57;nan;101347.19;5027594;28;20033;-71
2023/01/07 00:10:26;;;;;;;24.17;12.10;;;;;;;4.79;nan;101387.47;5034324;28;20065;-71
2023/01/07 00:12:52;;;;;;;25.58;12.82;;;;;;;4.68;nan;101349.47;5024184;28;20142;-71
2023/01/07 00:15:17;;;;;;;26.27;12.68;;;;;;;4.71;nan;101354.38;5031562;28;20042;-72
2023/01/07 00:17:43;;;;;;;22.50;12.73;;;;;;;4.68;nan;101358.13;5020847;28;20030;-71
2023/01/07 00:20:09;;;;;;;23.65;13.38;;;;;;;4.75;nan;101368.72;5044102;28;20025;-71
2023/01/07 00:22:34;;;;;;;22.83;12.88;;;;;;;4.76;nan;101365.13;5049855;28;20041;-71
2023/01/07 00:24:59;;;;;;;27.33;14.23;;;;;;;4.75;nan;101358.28;5040049;28;20037;-71
2023/01/07 00:27:25;;;;;;;25.63;14.88;;;;;;;4.79;nan;101367.44;5027756;28;20100;-71
2023/01/07 00:29:50;;;;;;;24.90;13.85;;;;;;;4.74;nan;101350.63;5023050;28;20029;-71
2023/01/07 00:32:15;;;;;;;26.13;12.90;;;;;;;4.76;nan;101380.78;5038754;28;20033;-71
2023/01/07 00:34:41;;;;;;;24.27;14.80;;;;;;;4.61;nan;101369.38;5032900;28;20391;-71
2023/01/07 00:39:50;;;;;;;24.80;14.32;;;;;;;4.67;nan;101369.53;5024483;28;20036;-71
2023/01/07 00:44:59;;;;;;;33.97;15.05;;;;;;;4.70;nan;101371.00;5028153;28;20068;-71
2023/01/07 00:47:25;;;;;;;26.92;13.98;;;;;;;4.68;nan;101368.56;5026451;28;20053;-71
2023/01/07 00:49:50;;;;;;;23.90;13.45;;;;;;;4.66;nan;101367.91;5032199;28;20029;-71
2023/01/07 00:52:15;;;;;;;24.50;13.90;;;;;;;4.68;nan;101363.34;5026359;28;20458;-71
2023/01/07 00:54:41;;;;;;;32.72;14.20;;;;;;;4.68;nan;101365.94;5024975;28;20431;-71
2023/01/07 00:57:10;;;;;;;25.70;13.82;;;;;;;4.67;nan;101360.91;5025255;28;20033;-71
2023/01/07 00:59:35;;;;;;;;;;;;;;;4.74;nan;101381.94;5026689;28;20481;-71
2023/01/07 01:02:01;;;;;;;27.38;13.20;;;;;;;4.74;nan;101395.81;5026132;28;20146;-71
2023/01/07 01:04:26;;;;;;;23.73;14.25;;;;;;;4.59;nan;101376.53;5026704;28;20096;-71
2023/01/07 01:06:52;;;;;;;24.13;13.88;;;;;;;4.59;nan;101372.13;5024571;28;20021;-71
2023/01/07 01:09:19;;;;;;;25.50;14.40;;;;;;;4.50;nan;101367.88;5021088;28;20033;-71
2023/01/07 01:11:44;;;;;;;21.73;12.95;;;;;;;4.48;nan;101367.25;5023072;28;20040;-71
2023/01/07 01:14:10;;;;;;;22.80;13.70;;;;;;;4.45;nan;101365.78;5031040;28;20416;-71
2023/01/07 01:16:35;;;;;;;24.95;13.32;;;;;;;4.38;nan;101350.91;5023538;28;20025;-71
2023/01/07 01:19:01;;;;;;;26.13;13.65;;;;;;;4.42;nan;101353.03;5027318;28;20028;-70
2023/01/07 01:21:26;;;;;;;25.83;12.43;;;;;;;4.37;nan;101347.50;5048035;28;20396;-71
2023/01/07 01:23:52;;;;;;;21.77;12.40;;;;;;;4.31;nan;101350.75;5024021;28;20123;-71
2023/01/07 01:26:17;;;;;;;20.50;11.40;;;;;;;4.38;nan;101354.34;5003532;28;20030;-71
2023/01/07 01:28:44;;;;;;;18.95;10.95;;;;;;;4.07;nan;101304.59;5029251;28;20036;-72
2023/01/07 01:31:09;;;;;;;21.45;11.25;;;;;;;4.36;nan;101350.28;5023278;28;20038;-71
2023/01/07 01:33:35;;;;;;;22.88;11.40;;;;;;;4.33;nan;101348.78;5027982;28;20109;-71
2023/01/07 01:36:05;;;;;;;22.20;12.02;;;;;;;4.33;nan;101351.38;5023191;28;20029;-71
2023/01/07 01:38:30;;;;;;;19.33;11.18;;;;;;;4.21;nan;101335.25;5004161;28;20025;-70
2023/01/07 01:40:56;;;;;;;21.17;11.98;;;;;;;3.96;nan;101295.28;5024484;28;20040;-71
2023/01/07 01:43:35;;;;;;;20.95;11.40;;;;;;;4.33;nan;101348.78;5027321;28;20061;-71
2023/01/07 01:46:13;;;;;;;22.10;12.18;;;;;;;4.35;nan;101353.84;5022440;28;20052;-71
2023/01/07 01:48:44;;;;;;;21.23;11.52;;;;;;;4.29;nan;101341.47;5027759;28;20022;-71
2023/01/07 01:51:12;;;;;;;22.73;11.18;;;;;;;4.35;nan;101344.22;5018835;28;20053;-71
2023/01/07 01:53:38;;;;;;;18.55;10.02;;;;;;;4.32;nan;101331.50;5023485;28;20365;-71
2023/01/07 01:56:12;;;;;;;20.73;10.43;;;;;;;4.26;nan;101319.09;5041424;28;20120;-71
2023/01/07 01:58:51;;;;;;;21.63;10.48;;;;;;;4.32;nan;101343.75;5022977;28;20033;-71
2023/01/07 02:01:17;;;;;;;17.52;9.95;;;;;;;4.26;nan;101327.78;5027608;28;20036;-71
2023/01/07 02:03:43;;;;;;;20.08;10.35;;;;;;;4.27;nan;101331.19;5024481;28;20025;-71
2023/01/07 02:06:20;;;;;;;18.75;10.52;;;;;;;4.25;nan;101327.91;5028022;28;20545;-71
2023/01/07 02:08:45;;;;;;;17.63;11.00;;;;;;;4.32;nan;101328.09;5019739;28;20076;-71
2023/01/07 02:11:52;;;;;;;23.00;11.55;;;;;;;4.32;nan;101328.91;5024855;28;20026;-71
2023/01/07 02:14:39;;;;;;;22.10;10.38;;;;;;;4.31;nan;101332.50;5010421;28;20120;-71
2023/01/07 02:17:35;;;;;;;19.77;10.48;;;;;;;4.29;nan;101331.84;5017590;28;20037;-71
2023/01/07 02:20:09;;;;;;;19.27;10.65;;;;;;;4.27;nan;101339.00;5023812;28;20403;-71
2023/01/07 02:22:54;;;;;;;20.98;10.48;;;;;;;4.19;nan;101331.16;5016215;28;20136;-71
2023/01/07 02:25:19;;;;;;;24.27;11.05;;;;;;;4.17;nan;101343.56;5023828;28;20076;-71
2023/01/07 02:28:10;;;;;;;22.63;11.63;;;;;;;4.13;nan;101335.22;5018342;28;20030;-71
2023/01/07 02:31:05;;;;;;;20.13;11.10;;;;;;;4.11;nan;101333.75;5026398;28;20024;-71
2023/01/07 02:33:33;;;;;;;20.33;11.57;;;;;;;4.10;nan;101329.53;5028976;28;20042;-71
2023/01/07 02:35:58;;;;;;;19.45;11.82;;;;;;;4.05;nan;101322.19;5024777;28;20091;-71
2023/01/07 02:38:51;;;;;;;18.30;11.30;;;;;;;3.99;nan;101328.81;5023352;28;20037;-71
2023/01/07 02:41:28;;;;;;;20.63;11.25;;;;;;;3.90;nan;101321.16;5018670;28;20078;-71
2023/01/07 02:44:00;;;;;;;23.67;12.23;;;;;;;3.87;nan;101319.66;5006786;28;20509;-72
2023/01/07 02:46:55;;;;;;;21.00;11.52;;;;;;;3.76;nan;101305.16;5023310;28;20156;-71
2023/01/07 02:49:22;;;;;;;21.17;12.05;;;;;;;3.75;nan;101311.31;5026589;28;20052;-71
2023/01/07 02:51:47;;;;;;;25.38;12.95;;;;;;;3.73;nan;101315.88;5013964;28;20504;-71
2023/01/07 02:54:22;;;;;;;25.40;11.85;;;;;;;3.60;nan;101300.69;5022662;28;20051;-71
2023/01/07 02:57:12;;;;;;;26.13;13.25;;;;;;;3.68;nan;101319.94;5026696;28;20108;-71
2023/01/07 02:59:47;;;;;;;26.17;13.45;;;;;;;3.63;nan;101318.59;5025258;28;20424;-71
2023/01/07 03:02:34;;;;;;;26.20;13.88;;;;;;;3.61;nan;101319.72;5027235;28;20031;-70
2023/01/07 03:05:10;;;;;;;27.48;14.50;;;;;;;3.46;nan;101314.31;5000365;28;20041;-70
2023/01/07 03:07:50;;;;;;;32.15;15.30;;;;;;;3.43;nan;101319.03;5024569;28;20021;-70
2023/01/07 03:10:36;;;;;;;22.45;12.88;;;;;;;3.22;nan;101316.78;5017013;28;20018;-70
2023/01/07 03:13:13;;;;;;;26.98;13.85;;;;;;;3.21;nan;101321.19;5027335;28;20476;-70
2023/01/07 03:15:52;;;;;;;25.70;13.80;;;;;;;3.22;nan;101322.00;5009491;28;20029;-70
2023/01/07 03:18:26;;;;;;;;;;;;;;;3.27;nan;101317.13;5021441;28;20096;-70
2023/01/07 03:20:56;;;;;;;21.92;12.25;;;;;;;3.21;nan;101302.97;5017592;28;20060;-70
2023/01/07 03:23:25;;;;;;;20.98;11.70;;;;;;;3.31;nan;101313.25;5026516;28;20037;-70
2023/01/07 03:25:53;;;;;;;20.15;11.82;;;;;;;3.30;nan;101312.41;5020500;28;20107;-70
2023/01/07 03:28:24;;;;;;;20.80;12.05;;;;;;;3.33;nan;101304.31;5021876;28;20044;-70
2023/01/07 03:30:54;;;;;;;22.40;11.85;;;;;;;3.35;nan;101309.34;5024697;28;20021;-70
2023/01/07 03:33:33;;;;;;;21.52;12.05;;;;;;;3.27;nan;101304.94;5021234;28;20444;-70
2023/01/07 03:36:02;;;;;;;21.23;11.80;;;;;;;3.19;nan;101310.91;5028874;28;20472;-70
2023/01/07 03:38:29;;;;;;;15.48;8.43;;;;;;;3.12;nan;101319.50;5011656;28;20070;-70
2023/01/07 03:40:55;;;;;;;23.42;11.73;;;;;;;3.00;nan;101311.13;5033819;28;20032;-70
2023/01/07 03:43:21;;;;;;;20.83;10.77;;;;;;;2.92;nan;101296.28;5031171;28;20041;-69
2023/01/07 03:45:48;;;;;;;25.48;12.85;;;;;;;3.06;nan;101320.91;5031399;28;20055;-70
2023/01/07 03:48:14;;;;;;;22.35;11.68;;;;;;;3.03;nan;101315.19;5030484;28;20065;-70
2023/01/07 03:50:39;;;;;;;22.35;12.15;;;;;;;3.07;nan;101309.53;5033715;28;20566;-70
2023/01/07 03:53:04;;;;;;;22.83;12.88;;;;;;;2.95;nan;101288.16;5036609;28;20056;-70
2023/01/07 03:55:30;;;;;;;30.02;12.75;;;;;;;3.05;nan;101310.66;5013852;28;20529;-70
2023/01/07 03:57:56;;;;;;;22.90;11.88;;;;;;;2.95;nan;101285.56;5026282;28;20014;-70
2023/01/07 04:00:21;;;;;;;26.10;12.20;;;;;;;2.90;nan;101281.78;5027905;28;20075;-70
2023/01/07 04:02:46;;;;;;;24.55;12.73;;;;;;;2.92;nan;101292.84;5027227;28;20030;-70
2023/01/07 04:05:12;;;;;;;28.77;12.95;;;;;;;2.93;nan;101292.69;5026443;28;20382;-70
2023/01/07 04:07:37;;;;;;;28.92;12.98;;;;;;;2.97;nan;101298.41;5030777;28;20026;-70
2023/01/07 04:10:05;;;;;;;20.98;12.85;;;;;;;3.01;nan;101302.31;5032231;28;20044;-69
2023/01/07 04:12:31;;;;;;;23.95;12.52;;;;;;;3.03;nan;101307.41;5036047;28;20020;-70
2023/01/07 04:14:56;;;;;;;23.38;12.63;;;;;;;2.94;nan;101291.72;5046695;28;20021;-69
2023/01/07 04:17:22;;;;;;;22.33;12.55;;;;;;;2.94;nan;101296.09;5025513;28;20545;-69
2023/01/07 04:19:47;;;;;;;24.23;12.68;;;;;;;2.62;nan;101257.69;5025734;28;20554;-70
2023/01/07 04:22:12;;;;;;;24.50;12.35;;;;;;;3.00;nan;101302.50;5032646;28;20053;-70
2023/01/07 04:24:38;;;;;;;23.70;12.50;;;;;;;3.00;nan;101305.09;5027417;28;20025;-70
2023/01/07 04:27:03;;;;;;;25.65;12.40;;;;;;;2.88;nan;101283.72;5034620;28;20030;-70
2023/01/07 04:29:29;;;;;;;22.42;12.20;;;;;;;3.01;nan;101304.94;5004396;28;20028;-69
2023/01/07 04:31:55;;;;;;;24.80;12.35;;;;;;;3.04;nan;101312.44;5030002;28;20033;-70
2023/01/07 04:34:21;;;;;;;23.73;12.70;;;;;;;3.02;nan;101305.75;5012114;28;20048;-70
2023/01/07 04:36:46;;;;;;;25.20;12.50;;;;;;;3.09;nan;101314.56;5032166;28;20431;-70
2023/01/07 04:39:12;;;;;;;23.42;12.10;;;;;;;2.99;nan;101293.84;5034818;28;20091;-70
2023/01/07 04:41:37;;;;;;;19.45;11.18;;;;;;;2.73;nan;101254.81;5030875;28;20063;-69
2023/01/07 04:44:03;;;;;;;23.10;11.63;;;;;;;3.09;nan;101315.41;5027862;28;20026;-70
2023/01/07 04:46:29;;;;;;;25.45;13.60;;;;;;;2.94;nan;101293.50;5014809;28;20048;-70
2023/01/07 04:48:54;;;;;;;25.55;13.50;;;;;;;3.10;nan;101327.44;5030988;28;20036;-70
2023/01/07 04:51:19;;;;;;;29.50;13.00;;;;;;;3.04;nan;101317.66;5028589;28;20050;-70
2023/01/07 04:53:46;;;;;;;24.65;13.13;;;;;;;3.05;nan;101318.47;5024255;28;20033;-70
2023/01/07 04:56:11;;;;;;;23.35;12.73;;;;;;;3.03;nan;101312.59;5019439;28;20041;-69
2023/01/07 04:58:37;;;;;;;20.83;12.07;;;;;;;3.00;nan;101305.09;5013647;28;20498;-69
2023/01/07 05:01:02;;;;;;;23.85;12.45;;;;;;;3.10;nan;101313.63;5021099;28;20040;-70
2023/01/07 05:03:29;;;;;;;21.30;11.15;;;;;;;3.12;nan;101317.69;5033388;28;20033;-70
2023/01/07 05:05:54;;;;;;;24.08;11.60;;;;;;;3.18;nan;101321.47;5024415;28;20036;-70
2023/01/07 05:08:20;;;;;;;21.60;11.35;;;;;;;3.07;nan;101308.72;5033954;28;20030;-70
2023/01/07 05:10:48;;;;;;;21.25;11.50;;;;;;;3.18;nan;101322.31;5026518;28;20033;-70
2023/01/07 05:13:19;;;;;;;20.40;11.40;;;;;;;3.12;nan;101327.28;5020036;28;20040;-70
2023/01/07 05:15:45;;;;;;;17.77;10.70;;;;;;;3.08;nan;101324.16;5037032;28;20475;-70
2023/01/07 05:18:10;;;;;;;23.35;10.98;;;;;;;3.01;nan;101311.94;5017418;28;20029;-70
2023/01/07 05:20:36;;;;;;;20.95;11.48;;;;;;;2.92;nan;101306.69;5036852;28;20028;-71
2023/01/07 05:23:02;;;;;;;21.00;11.45;;;;;;;3.01;nan;101330.94;5026321;28;20037;-70
2023/01/07 05:25:27;;;;;;;19.42;11.15;;;;;;;3.04;nan;101330.66;5024058;28;20030;-70
2023/01/07 05:27:53;;;;;;;19.52;10.90;;;;;;;3.04;nan;101329.81;5017953;28;20037;-70
2023/01/07 05:30:18;;;;;;;23.88;11.43;;;;;;;3.09;nan;101344.03;5017740;28;20032;-70
2023/01/07 05:32:43;;;;;;;19.42;11.00;;;;;;;3.06;nan;101339.13;5033602;28;20100;-70
2023/01/07 05:35:09;;;;;;;18.83;10.27;;;;;;;3.08;nan;101346.78;5016662;28;20026;-70
2023/01/07 05:37:34;;;;;;;22.95;11.27;;;;;;;2.93;nan;101326.50;5018867;28;20033;-70
2023/01/07 05:39:59;;;;;;;20.38;10.98;;;;;;;2.97;nan;101327.03;5020385;28;20092;-70
2023/01/07 05:42:25;;;;;;;17.85;11.35;;;;;;;3.04;nan;101348.88;5032957;28;20033;-71
2023/01/07 05:44:50;;;;;;;22.90;11.23;;;;;;;2.99;nan;101335.47;5024169;28;20025;-70
2023/01/07 05:47:15;;;;;;;23.55;11.32;;;;;;;2.90;nan;101329.44;5018771;28;20478;-70
2023/01/07 05:49:41;;;;;;;22.13;11.82;;;;;;;2.86;nan;101327.28;5005212;28;20025;-70
2023/01/07 05:52:06;;;;;;;20.73;11.60;;;;;;;2.84;nan;101324.00;5025976;28;20108;-70
2023/01/07 05:54:32;;;;;;;21.77;11.38;;;;;;;2.78;nan;101320.22;5027320;28;20048;-70
2023/01/07 05:56:57;;;;;;;20.80;11.30;;;;;;;2.84;nan;101337.00;5025163;28;20022;-70
2023/01/07 05:59:22;;;;;;;21.33;11.23;;;;;;;2.80;nan;101336.47;5023565;28;20052;-71
2023/01/07 06:01:48;;;;;;;23.45;11.32;;;;;;;2.83;nan;101349.19;5023871;28;20030;-70
2023/01/07 06:04:13;;;;;;;20.15;10.80;;;;;;;2.80;nan;101330.47;5031608;28;20060;-70
2023/01/07 06:06:38;;;;;;;16.25;9.65;;;;;;;2.81;nan;101332.13;5026067;28;20416;-70
2023/01/07 06:09:04;;;;;;;21.17;10.05;;;;;;;2.87;nan;101344.50;5024685;28;20025;-70
2023/01/07 06:11:29;;;;;;;20.98;10.25;;;;;;;2.85;nan;101333.44;5026288;28;20034;-70
2023/01/07 06:13:55;;;;;;;17.45;9.45;;;;;;;2.77;nan;101326.38;5028307;28;20485;-71
2023/01/07 06:16:20;;;;;;;19.10;9.50;;;;;;;2.74;nan;101318.88;5025657;28;20038;-71
2023/01/07 06:18:45;;;;;;;15.30;8.95;;;;;;;2.79;nan;101331.44;5015488;28;20487;-70
2023/01/07 06:21:11;;;;;;;18.48;9.73;;;;;;;2.80;nan;101323.47;5018619;28;20025;-70
2023/01/07 06:23:36;;;;;;;18.15;9.50;;;;;;;2.88;nan;101339.16;5021547;28;20083;-70
2023/01/07 06:26:02;;;;;;;18.67;9.68;;;;;;;3.00;nan;101346.72;5015190;28;20026;-70
2023/01/07 06:28:27;;;;;;;18.35;10.15;;;;;;;2.85;nan;101323.88;5022977;28;20032;-71
2023/01/07 06:30:53;;;;;;;16.90;9.20;;;;;;;2.94;nan;101333.34;5023420;28;20060;-70
2023/01/07 06:33:18;;;;;;;22.08;9.80;;;;;;;3.05;nan;101347.09;5020577;28;20033;-70
2023/01/07 06:35:45;;;;;;;17.20;9.15;;;;;;;3.06;nan;101349.53;5019379;28;20040;-70
2023/01/07 06:38:10;;;;;;;19.17;9.32;;;;;;;3.05;nan;101334.88;5019877;28;20107;-70
2023/01/07 06:40:36;;;;;;;18.67;8.93;;;;;;;3.01;nan;101336.16;5027469;28;20682;-69
2023/01/07 06:43:01;;;;;;;16.27;9.27;;;;;;;3.08;nan;101345.00;5027264;28;20037;-69
2023/01/07 06:45:26;;;;;;;22.23;10.20;;;;;;;3.08;nan;101337.19;5023387;28;20113;-70
2023/01/07 06:47:52;;;;;;;17.02;10.10;;;;;;;3.04;nan;101320.25;5022287;28;20398;-70
2023/01/07 06:50:17;;;;;;;22.55;10.48;;;;;;;3.15;nan;101324.38;5009310;28;20108;-70
2023/01/07 06:52:43;;;;;;;18.63;10.55;;;;;;;3.14;nan;101317.56;5022034;28;20086;-70
2023/01/07 06:55:09;;;;;;;20.70;10.38;;;;;;;3.18;nan;101337.91;5034962;28;20041;-70
2023/01/07 06:57:34;;;;;;;20.63;10.05;;;;;;;3.08;nan;101316.38;4997956;28;20550;-70
2023/01/07 07:00:00;;;;;;;18.23;10.75;;;;;;;3.14;nan;101333.97;5019623;28;20026;-70
2023/01/07 07:02:27;;;;;;;20.63;10.25;;;;;;;3.15;nan;101334.78;5024405;28;20029;-71
2023/01/07 07:04:53;;;;;;;22.67;10.95;;;;;;;3.17;nan;101328.47;5021128;28;20033;-71
2023/01/07 07:07:19;;;;;;;22.20;11.00;;;;;;;3.18;nan;101330.09;5024640;28;20460;-70
2023/01/07 07:09:45;;;;;;;23.40;10.82;;;;;;;3.14;nan;101317.56;5006498;28;20179;-70
2023/01/07 07:12:10;;;;;;;24.52;11.00;;;;;;;3.11;nan;101315.25;5010038;28;20434;-71
2023/01/07 07:14:36;;;;;;;22.38;11.23;;;;;;;3.26;nan;101329.34;5022168;28;20021;-71
2023/01/07 07:17:02;;;;;;;23.88;11.07;;;;;;;3.30;nan;101330.63;5029427;28;20025;-72
2023/01/07 07:19:27;;;;;;;27.33;12.48;;;;;;;3.36;nan;101322.22;5018726;28;20029;-70
2023/01/07 07:21:53;;;;;;;20.70;12.07;;;;;;;3.43;nan;101327.63;5022183;28;20598;-70
2023/01/07 07:24:18;;;;;;;25.88;12.13;;;;;;;3.44;nan;101313.63;5013738;28;20038;-72
2023/01/07 07:26:44;;;;;;;22.35;11.85;;;;;;;3.52;nan;101328.47;5004844;28;20049;-72
2023/01/07 07:29:09;;;;;;;26.95;13.05;;;;;;;3.45;nan;101317.88;5016499;28;20229;-72
2023/01/07 07:31:36;;;;;;;26.13;12.95;;;;;;;3.58;nan;101326.06;5003032;28;20029;-72
2023/01/07 07:34:01;;;;;;;30.23;12.93;;;;;;;3.53;nan;101309.28;5023961;28;20033;-70
2023/01/07 07:36:27;;;;;;;25.90;12.68;;;;;;;3.66;nan;101322.69;5026212;28;20043;-71
2023/01/07 07:38:52;;;;;;;32.10;12.55;;;;;;;3.70;nan;101316.19;5002750;28;20037;-71
2023/01/07 07:41:17;;;;;;;27.88;13.02;;;;;;;3.82;nan;101325.34;5024152;28;20041;-71
2023/01/07 07:43:43;;;;;;;24.70;13.20;;;;;;;3.86;nan;101312.84;5002193;28;20084;-71
2023/01/07 07:46:08;;;;;;;30.02;14.30;;;;;;;3.93;nan;101319.06;5020689;28;20147;-71
2023/01/07 07:48:33;;;;;;;28.27;14.30;;;;;;;3.96;nan;101307.50;5004874;28;20154;-71
2023/01/07 07:50:59;;;;;;;24.98;13.25;;;;;;;4.09;nan;101312.25;5018967;28;20057;-71
2023/01/07 07:53:24;;;;;;;25.02;12.98;;;;;;;4.05;nan;101296.13;5016319;28;20026;-72
2023/01/07 07:55:52;;;;;;;21.20;11.70;;;;;;;4.24;nan;101315.88;5022143;28;20025;-71
2023/01/07 07:58:17;;;;;;;24.30;12.30;;;;;;;4.32;nan;101313.25;5023100;28;21557;-72
2023/01/07 08:00:42;;;;;;;20.08;11.75;;;;;;;4.42;nan;101307.91;5009710;28;20104;-71
2023/01/07 08:05:42;;;;;;;19.23;10.57;;;;;;;4.55;nan;101300.41;5002679;28;20132;-71
2023/01/07 08:08:10;;;;;;;18.83;10.10;;;;;;;4.80;nan;101316.88;5027290;28;20121;-71
2023/01/07 08:10:35;;;;;;;18.10;9.70;;;;;;;4.91;nan;101310.50;5008480;28;20076;-69
2023/01/07 08:13:01;;;;;;;22.05;10.50;;;;;;;4.88;nan;101292.56;5007548;28;20030;-71
2023/01/07 08:15:26;;;;;;;17.63;9.50;;;;;;;5.00;nan;101293.84;5011616;28;21302;-72
2023/01/07 08:18:00;;;;;;;17.75;9.70;;;;;;;4.82;nan;101283.59;5010888;28;20026;-72
2023/01/07 08:20:26;;;;;;;17.08;8.98;;;;;;;5.16;nan;101298.22;4981658;28;20038;-72
2023/01/07 08:22:52;;;;;;;16.95;9.65;;;;;;;5.30;nan;101315.00;5015971;28;20510;-72
2023/01/07 08:25:18;;;;;;;17.88;10.20;;;;;;;5.36;nan;101306.47;4998559;28;20042;-73
2023/01/07 08:27:43;;;;;;;16.73;9.30;;;;;;;5.40;nan;101289.50;5001913;28;20018;-72
2023/01/07 08:30:09;;;;;;;15.15;8.40;;;;;;;5.56;nan;101300.88;5006142;28;20088;-72
2023/01/07 08:32:35;;;;;;;15.43;8.77;;;;;;;5.71;nan;101301.78;4989131;28;20084;-72
2023/01/07 08:35:01;;;;;;;16.42;8.05;;;;;;;5.88;nan;101299.91;4988018;28;20026;-72
2023/01/07 08:37:29;;;;;;;20.70;8.38;;;;;;;5.99;nan;101298.75;5007263;28;20025;-72
2023/01/07 08:39:54;;;;;;;13.82;7.75;;;;;;;6.05;nan;101283.16;5008276;28;20026;-73
2023/01/07 08:42:19;;;;;;;16.08;8.02;;;;;;;6.33;nan;101311.44;5006255;28;20041;-74
2023/01/07 08:44:45;;;;;;;12.60;7.90;;;;;;;6.47;nan;101315.09;4982748;28;20120;-73
2023/01/07 08:47:10;;;;;;;15.30;8.10;;;;;;;6.53;nan;101299.50;5005233;28;20054;-72
2023/01/07 08:49:35;;;;;;;14.63;7.70;;;;;;;;;;5009941;28;20468;-73
2023/01/07 08:52:01;;;;;;;18.20;7.65;;;;;;;;;;5002308;28;20055;-72
2023/01/07 08:54:26;;;;;;;16.63;7.63;;;;;;;6.91;nan;101296.06;4996626;28;20044;-72
2023/01/07 08:56:51;;;;;;;15.82;7.95;;;;;;;6.95;nan;101287.69;4983239;28;20287;-72
2023/01/07 08:59:17;;;;;;;15.38;6.68;;;;;;;7.18;nan;101307.72;4984285;28;20050;-73
2023/01/07 09:01:42;;;;;;;18.73;6.97;;;;;;;;;;4988137;28;20476;-72
2023/01/07 09:04:07;;;;;;;12.17;6.60;;;;;;;7.37;nan;101298.53;4995040;28;20053;-72
2023/01/07 09:06:33;;;;;;;13.98;6.82;;;;;;;7.57;nan;101296.19;5009879;28;20282;-71
2023/01/07 09:08:58;;;;;;;13.32;7.18;;;;;;;7.72;nan;101289.09;5010257;28;20168;-72
2023/01/07 09:11:23;;;;;;;15.00;6.68;;;;;;;7.85;nan;101293.66;5009707;28;20119;-72
2023/01/07 09:13:49;;;;;;;14.32;6.10;;;;;;;7.97;nan;101291.38;5013181;28;20030;-72
2023/01/07 09:16:14;;;;;;;14.52;6.95;;;;;;;7.94;nan;101273.41;5006402;28;20084;-72
2023/01/07 09:18:39;;;;;;;12.35;6.32;;;;;;;7.98;nan;101257.09;5004524;28;20022;-73
2023/01/07 09:21:05;;;;;;;15.55;6.68;;;;;;;8.32;nan;101282.66;5001898;28;20393;-73
2023/01/07 09:23:30;;;;;;;11.32;6.32;;;;;;;8.40;nan;101267.81;4984099;28;20117;-72
2023/01/07 09:25:56;;;;;;;17.27;7.32;;;;;;;8.44;nan;101259.38;5010025;28;20361;-72
2023/01/07 09:28:24;;;;;;;13.77;6.53;;;;;;;8.55;nan;101250.19;5003757;28;20050;-72
2023/01/07 09:30:50;;;;;;;13.90;6.63;;;;;;;8.82;nan;101272.19;4999651;28;20376;-71
2023/01/07 09:33:15;;;;;;;12.63;6.30;;;;;;;8.88;nan;101262.72;5008339;28;20052;-72
2023/01/07 09:35:40;;;;;;;15.68;6.70;;;;;;;8.98;nan;101267.63;5012645;28;20642;-72
2023/01/07 09:38:06;;;;;;;13.52;6.20;;;;;;;9.03;nan;101258.19;5003080;28;20034;-71
2023/01/07 09:40:36;;;;;;;11.68;6.35;;;;;;;9.11;nan;101258.00;5007728;28;20022;-72
2023/01/07 09:43:24;;;;;;;13.13;6.60;;;;;;;9.27;nan;101272.66;5009865;28;20037;-72
2023/01/07 09:45:52;;;;;;;15.82;6.38;;;;;;;9.35;nan;101264.59;4990654;28;20858;-72
2023/01/07 09:48:30;;;;;;;11.57;6.82;;;;;;;9.47;nan;101264.84;5000359;28;20076;-73
2023/01/07 09:51:20;;;;;;;12.73;6.93;;;;;;;9.58;nan;101266.13;5008539;28;20098;-70
2023/01/07 09:53:49;;;;;;;16.02;7.25;;;;;;;9.66;nan;101263.31;5007426;28;20518;-70
2023/01/07 09:56:30;;;;;;;14.63;7.75;;;;;;;9.46;nan;101209.88;5008350;28;20045;-71
2023/01/07 09:58:57;;;;;;;13.40;6.57;;;;;;;9.84;nan;101256.69;5003907;28;20065;-70
2023/01/07 10:01:35;;;;;;;12.25;6.13;;;;;;;9.70;nan;101221.66;5010550;28;20037;-69
2023/01/07 10:04:08;;;;;;;12.88;6.38;;;;;;;10.00;nan;101256.31;5009662;28;20050;-68
2023/01/07 10:06:42;;;;;;;13.30;6.53;;;;;;;10.07;nan;101253.69;5005239;28;20075;-69
2023/01/07 10:09:27;;;;;;;13.55;6.53;;;;;;;10.11;nan;101234.69;5015652;28;20652;-69
2023/01/07 10:12:03;;;;;;;13.20;6.45;;;;;;;10.18;nan;101234.69;4989755;28;20025;-68
2023/01/07 10:14:34;;;;;;;15.77;6.88;;;;;;;10.27;nan;101241.38;5017433;28;20383;-70
2023/01/07 10:17:20;;;;;;;12.45;6.53;;;;;;;10.35;nan;101243.03;4994640;28;20053;-73
2023/01/07 10:20:10;;;;;;;12.25;6.47;;;;;;;10.44;nan;101249.72;4999055;28;20032;-72
2023/01/07 10:22:43;;;;;;;11.27;6.50;;;;;;;10.53;nan;101245.84;4992663;28;20438;-72
2023/01/07 10:25:18;;;;;;;14.40;6.60;;;;;;;10.55;nan;101232.47;5010358;28;20032;-70
2023/01/07 10:27:45;;;;;;;9.90;6.45;;;;;;;10.70;nan;101246.22;4996802;28;20120;-70
2023/01/07 10:30:17;;;;;;;13.85;6.82;;;;;;;10.76;nan;101239.34;5001676;28;20124;-69
2023/01/07 10:32:45;;;;;;;10.48;6.43;;;;;;;10.82;nan;101239.34;5008591;28;20639;-68
2023/01/07 10:35:20;;;;;;;13.50;6.60;;;;;;;10.90;nan;101232.25;5011882;28;20044;-69
2023/01/07 10:37:46;;;;;;;11.40;6.78;;;;;;;11.06;nan;101234.41;5009131;28;20377;-68
2023/01/07 10:40:11;;;;;;;17.88;6.40;;;;;;;11.04;nan;101216.19;4993186;28;20044;-68
2023/01/07 10:42:49;;;;;;;10.43;5.95;;;;;;;11.11;nan;101210.06;5015544;28;20034;-68
2023/01/07 10:45:49;;;;;;;14.45;6.40;;;;;;;11.29;nan;101221.56;4985020;28;20026;-69
2023/01/07 10:48:48;;;;;;;8.85;5.20;;;;;;;11.42;nan;101218.06;5016041;28;20040;-68
2023/01/07 10:51:27;;;;;;;;;;;;;;;11.49;nan;101218.00;5018619;28;20029;-68
2023/01/07 10:54:10;;;;;;;10.80;5.88;;;;;;;11.50;nan;101201.19;5014716;28;19921;-69
2023/01/07 10:56:40;;;;;;;9.68;5.32;;;;;;;11.56;nan;101200.31;5010056;28;20400;-69
2023/01/07 10:59:13;;;;;;;11.20;5.70;;;;;;;11.60;nan;101193.63;5007211;28;20095;-69
2023/01/07 11:01:43;;;;;;;12.07;5.72;;;;;;;11.69;nan;101187.06;5008620;28;20051;-70
2023/01/07 11:04:13;;;;;;;10.13;4.88;;;;;;;11.80;nan;101187.41;5007800;28;20515;-68
2023/01/07 11:06:52;;;;;;;12.10;5.53;;;;;;;11.83;nan;101182.50;4985640;28;20022;-67
2023/01/07 11:09:34;;;;;;;9.60;5.40;;;;;;;11.86;nan;101174.16;5011030;28;20038;-69
2023/01/07 11:12:37;;;;;;;10.65;4.60;;;;;;;11.91;nan;101171.72;5006181;28;20032;-67
2023/01/07 11:15:07;;;;;;;9.75;4.95;;;;;;;12.04;nan;101183.19;5005495;28;20038;-67
2023/01/07 11:17:52;;;;;;;7.82;4.63;;;;;;;12.11;nan;101176.84;5008249;28;20029;-67
2023/01/07 11:20:51;;;;;;;7.78;4.40;;;;;;;12.12;nan;101162.63;4988381;28;20112;-67
2023/01/07 11:23:36;;;;;;;11.05;5.32;;;;;;;12.27;nan;101167.56;4952645;28;20057;-68
2023/01/07 11:26:32;;;;;;;11.77;4.90;;;;;;;12.24;nan;101156.66;5004237;28;20156;-67
2023/01/07 11:29:15;;;;;;;11.95;5.25;;;;;;;12.20;nan;101131.69;4994477;28;20037;-67
2023/01/07 11:31:55;;;;;;;7.50;4.43;;;;;;;12.45;nan;101160.69;5002585;28;20030;-67
2023/01/07 11:34:26;;;;;;;11.30;4.63;;;;;;;12.52;nan;101142.94;4987926;28;20109;-69
2023/01/07 11:36:52;;;;;;;9.02;4.40;;;;;;;12.56;nan;101136.19;5004314;28;20076;-67
2023/01/07 11:39:26;;;;;;;9.32;4.80;;;;;;;12.67;nan;101142.59;4999891;28;20065;-68
2023/01/07 11:41:59;;;;;;;10.80;5.10;;;;;;;12.71;nan;101134.03;5009675;28;20026;-67
2023/01/07 11:44:26;;;;;;;11.30;5.15;;;;;;;12.75;nan;101137.81;5013246;28;20036;-69
2023/01/07 11:46:53;;;;;;;10.85;4.90;;;;;;;12.77;nan;101125.19;5011565;28;20018;-68
2023/01/07 11:49:42;;;;;;;8.80;5.03;;;;;;;12.82;nan;101116.59;4991078;28;20030;-69
2023/01/07 11:52:17;;;;;;;8.23;5.05;;;;;;;12.83;nan;101104.19;4996752;28;20036;-69
2023/01/07 11:54:49;;;;;;;10.05;4.90;;;;;;;12.89;nan;101106.75;4997403;28;20109;-70